sensor_id;sensor_type;location;lat;lon;timestamp;P1;durP1;ratioP1;P2;durP2;ratioP2
23179;SDS011;11758;45.756;11.432;2022-07-25T00:01:12;7.90;;;6.57;;
23179;SDS011;11758;45.756;11.432;2022-07-25T00:03:39;7.35;;;6.20;;
23179;SDS011;11758;45.756;11.432;2022-07-25T00:06:05;8.50;;;6.30;;
23179;SDS011;11758;45.756;11.432;2022-07-25T00:08:31;7.55;;;5.80;;
23179;SDS011;11758;45.756;11.432;2022-07-25T00:10:58;7.63;;;6.43;;
23179;SDS011;11758;45.756;11.432;2022-07-25T00:13:24;7.47;;;6.22;;
23179;SDS011;11758;45.756;11.432;2022-07-25T00:15:50;7.18;;;6.35;;
23179;SDS011;11758;45.756;11.432;2022-07-25T00:18:16;8.68;;;6.05;;
23179;SDS011;11758;45.756;11.432;2022-07-25T00:20:42;6.63;;;5.93;;
23179;SDS011;11758;45.756;11.432;2022-07-25T00:23:08;8.68;;;6.10;;
23179;SDS011;11758;45.756;11.432;2022-07-25T00:25:34;6.70;;;6.00;;
23179;SDS011;11758;45.756;11.432;2022-07-25T00:28:00;9.05;;;6.47;;
23179;SDS011;11758;45.756;11.432;2022-07-25T00:30:26;6.25;;;5.63;;
23179;SDS011;11758;45.756;11.432;2022-07-25T00:32:53;6.18;;;5.57;;
23179;SDS011;11758;45.756;11.432;2022-07-25T00:35:19;7.10;;;5.80;;
23179;SDS011;11758;45.756;11.432;2022-07-25T00:37:45;6.63;;;5.85;;
23179;SDS011;11758;45.756;11.432;2022-07-25T00:40:11;6.75;;;5.70;;
23179;SDS011;11758;45.756;11.432;2022-07-25T00:42:37;6.88;;;6.15;;
23179;SDS011;11758;45.756;11.432;2022-07-25T00:45:04;10.18;;;6.00;;
23179;SDS011;11758;45.756;11.432;2022-07-25T00:47:30;7.60;;;6.07;;
23179;SDS011;11758;45.756;11.432;2022-07-25T00:49:56;8.57;;;6.50;;
23179;SDS011;11758;45.756;11.432;2022-07-25T00:52:22;10.43;;;6.20;;
23179;SDS011;11758;45.756;11.432;2022-07-25T00:54:49;11.57;;;5.57;;
23179;SDS011;11758;45.756;11.432;2022-07-25T00:57:15;8.82;;;6.40;;
23179;SDS011;11758;45.756;11.432;2022-07-25T00:59:41;6.15;;;5.75;;
23179;SDS011;11758;45.756;11.432;2022-07-25T01:02:07;14.25;;;6.10;;
23179;SDS011;11758;45.756;11.432;2022-07-25T01:04:33;7.55;;;5.85;;
23179;SDS011;11758;45.756;11.432;2022-07-25T01:06:59;6.82;;;5.70;;
23179;SDS011;11758;45.756;11.432;2022-07-25T01:09:25;6.78;;;5.70;;
23179;SDS011;11758;45.756;11.432;2022-07-25T01:11:52;6.50;;;6.00;;
23179;SDS011;11758;45.756;11.432;2022-07-25T01:14:18;8.40;;;6.45;;
23179;SDS011;11758;45.756;11.432;2022-07-25T01:16:44;7.18;;;5.90;;
23179;SDS011;11758;45.756;11.432;2022-07-25T01:19:10;6.20;;;5.70;;
23179;SDS011;11758;45.756;11.432;2022-07-25T01:21:37;6.80;;;5.80;;
23179;SDS011;11758;45.756;11.432;2022-07-25T01:24:04;7.18;;;6.00;;
23179;SDS011;11758;45.756;11.432;2022-07-25T01:26:30;6.15;;;5.45;;
23179;SDS011;11758;45.756;11.432;2022-07-25T01:28:56;6.03;;;5.20;;
23179;SDS011;11758;45.756;11.432;2022-07-25T01:31:23;6.35;;;5.75;;
23179;SDS011;11758;45.756;11.432;2022-07-25T01:33:49;8.13;;;5.63;;
23179;SDS011;11758;45.756;11.432;2022-07-25T01:36:15;10.88;;;6.25;;
23179;SDS011;11758;45.756;11.432;2022-07-25T01:38:42;6.38;;;5.80;;
23179;SDS011;11758;45.756;11.432;2022-07-25T01:41:08;9.10;;;5.32;;
23179;SDS011;11758;45.756;11.432;2022-07-25T01:43:34;8.20;;;5.60;;
23179;SDS011;11758;45.756;11.432;2022-07-25T01:46:00;9.43;;;5.70;;
23179;SDS011;11758;45.756;11.432;2022-07-25T01:48:26;6.60;;;5.40;;
23179;SDS011;11758;45.756;11.432;2022-07-25T01:50:52;6.20;;;5.70;;
23179;SDS011;11758;45.756;11.432;2022-07-25T01:53:18;5.80;;;5.30;;
23179;SDS011;11758;45.756;11.432;2022-07-25T01:55:44;6.38;;;5.50;;
23179;SDS011;11758;45.756;11.432;2022-07-25T01:58:11;9.05;;;5.57;;
23179;SDS011;11758;45.756;11.432;2022-07-25T02:00:37;6.75;;;6.15;;
23179;SDS011;11758;45.756;11.432;2022-07-25T02:03:04;6.53;;;5.85;;
23179;SDS011;11758;45.756;11.432;2022-07-25T02:05:49;7.15;;;6.47;;
23179;SDS011;11758;45.756;11.432;2022-07-25T02:08:15;6.15;;;5.70;;
23179;SDS011;11758;45.756;11.432;2022-07-25T02:10:41;8.57;;;6.03;;
23179;SDS011;11758;45.756;11.432;2022-07-25T02:13:07;6.65;;;5.68;;
23179;SDS011;11758;45.756;11.432;2022-07-25T02:15:34;7.30;;;6.20;;
23179;SDS011;11758;45.756;11.432;2022-07-25T02:18:00;6.65;;;5.97;;
23179;SDS011;11758;45.756;11.432;2022-07-25T02:20:27;8.05;;;6.03;;
23179;SDS011;11758;45.756;11.432;2022-07-25T02:22:53;6.40;;;5.80;;
23179;SDS011;11758;45.756;11.432;2022-07-25T02:25:19;7.13;;;5.97;;
23179;SDS011;11758;45.756;11.432;2022-07-25T02:27:45;8.23;;;6.38;;
23179;SDS011;11758;45.756;11.432;2022-07-25T02:30:11;7.88;;;5.85;;
23179;SDS011;11758;45.756;11.432;2022-07-25T02:32:37;6.35;;;5.85;;
23179;SDS011;11758;45.756;11.432;2022-07-25T02:35:04;6.80;;;6.07;;
23179;SDS011;11758;45.756;11.432;2022-07-25T02:37:31;7.78;;;5.97;;
23179;SDS011;11758;45.756;11.432;2022-07-25T02:39:57;6.75;;;6.10;;
23179;SDS011;11758;45.756;11.432;2022-07-25T02:42:24;8.55;;;6.63;;
23179;SDS011;11758;45.756;11.432;2022-07-25T02:44:50;7.40;;;6.28;;
23179;SDS011;11758;45.756;11.432;2022-07-25T02:47:16;7.90;;;6.28;;
23179;SDS011;11758;45.756;11.432;2022-07-25T02:49:42;7.75;;;6.53;;
23179;SDS011;11758;45.756;11.432;2022-07-25T02:52:08;7.22;;;6.57;;
23179;SDS011;11758;45.756;11.432;2022-07-25T02:54:34;7.97;;;6.50;;
23179;SDS011;11758;45.756;11.432;2022-07-25T02:57:00;9.23;;;6.72;;
23179;SDS011;11758;45.756;11.432;2022-07-25T02:59:26;11.68;;;6.57;;
23179;SDS011;11758;45.756;11.432;2022-07-25T03:01:52;7.40;;;6.70;;
23179;SDS011;11758;45.756;11.432;2022-07-25T03:04:19;6.68;;;6.18;;
23179;SDS011;11758;45.756;11.432;2022-07-25T03:06:45;7.40;;;6.25;;
23179;SDS011;11758;45.756;11.432;2022-07-25T03:09:11;6.78;;;6.07;;
23179;SDS011;11758;45.756;11.432;2022-07-25T03:11:37;8.45;;;6.93;;
23179;SDS011;11758;45.756;11.432;2022-07-25T03:14:03;7.28;;;6.35;;
23179;SDS011;11758;45.756;11.432;2022-07-25T03:16:29;6.13;;;5.63;;
23179;SDS011;11758;45.756;11.432;2022-07-25T03:18:55;7.45;;;5.93;;
23179;SDS011;11758;45.756;11.432;2022-07-25T03:21:21;16.73;;;6.43;;
23179;SDS011;11758;45.756;11.432;2022-07-25T03:23:47;7.03;;;6.40;;
23179;SDS011;11758;45.756;11.432;2022-07-25T03:26:14;7.28;;;6.32;;
23179;SDS011;11758;45.756;11.432;2022-07-25T03:28:40;8.85;;;6.18;;
23179;SDS011;11758;45.756;11.432;2022-07-25T03:31:06;10.20;;;6.10;;
23179;SDS011;11758;45.756;11.432;2022-07-25T03:33:33;8.80;;;6.47;;
23179;SDS011;11758;45.756;11.432;2022-07-25T03:35:59;6.95;;;6.10;;
23179;SDS011;11758;45.756;11.432;2022-07-25T03:38:25;8.57;;;5.93;;
23179;SDS011;11758;45.756;11.432;2022-07-25T03:40:51;7.10;;;6.40;;
23179;SDS011;11758;45.756;11.432;2022-07-25T03:43:17;11.73;;;6.45;;
23179;SDS011;11758;45.756;11.432;2022-07-25T03:45:43;8.30;;;6.88;;
23179;SDS011;11758;45.756;11.432;2022-07-25T03:48:09;7.00;;;6.30;;
23179;SDS011;11758;45.756;11.432;2022-07-25T03:50:36;7.38;;;6.68;;
23179;SDS011;11758;45.756;11.432;2022-07-25T03:53:02;7.85;;;6.05;;
23179;SDS011;11758;45.756;11.432;2022-07-25T03:55:28;6.85;;;6.18;;
23179;SDS011;11758;45.756;11.432;2022-07-25T03:57:54;7.00;;;6.38;;
23179;SDS011;11758;45.756;11.432;2022-07-25T04:00:20;7.18;;;6.47;;
23179;SDS011;11758;45.756;11.432;2022-07-25T04:02:46;7.03;;;6.43;;
23179;SDS011;11758;45.756;11.432;2022-07-25T04:05:13;11.77;;;6.90;;
23179;SDS011;11758;45.756;11.432;2022-07-25T04:07:39;6.70;;;6.13;;
23179;SDS011;11758;45.756;11.432;2022-07-25T04:10:05;6.90;;;6.38;;
23179;SDS011;11758;45.756;11.432;2022-07-25T04:12:31;7.25;;;6.55;;
23179;SDS011;11758;45.756;11.432;2022-07-25T04:14:58;6.78;;;6.18;;
23179;SDS011;11758;45.756;11.432;2022-07-25T04:17:24;8.13;;;6.80;;
23179;SDS011;11758;45.756;11.432;2022-07-25T04:19:50;7.25;;;6.63;;
23179;SDS011;11758;45.756;11.432;2022-07-25T04:22:16;7.13;;;6.40;;
23179;SDS011;11758;45.756;11.432;2022-07-25T04:24:42;7.85;;;6.50;;
23179;SDS011;11758;45.756;11.432;2022-07-25T04:27:08;6.70;;;6.13;;
23179;SDS011;11758;45.756;11.432;2022-07-25T04:29:34;7.80;;;6.72;;
23179;SDS011;11758;45.756;11.432;2022-07-25T04:32:00;6.93;;;6.30;;
23179;SDS011;11758;45.756;11.432;2022-07-25T04:34:26;6.97;;;6.20;;
23179;SDS011;11758;45.756;11.432;2022-07-25T04:36:53;7.70;;;6.25;;
23179;SDS011;11758;45.756;11.432;2022-07-25T04:39:19;7.00;;;6.40;;
23179;SDS011;11758;45.756;11.432;2022-07-25T04:41:48;9.80;;;6.38;;
23179;SDS011;11758;45.756;11.432;2022-07-25T04:44:15;7.45;;;6.70;;
23179;SDS011;11758;45.756;11.432;2022-07-25T04:46:41;6.70;;;6.22;;
23179;SDS011;11758;45.756;11.432;2022-07-25T04:49:07;7.32;;;6.60;;
23179;SDS011;11758;45.756;11.432;2022-07-25T04:51:34;10.10;;;6.70;;
23179;SDS011;11758;45.756;11.432;2022-07-25T04:54:00;10.88;;;6.50;;
23179;SDS011;11758;45.756;11.432;2022-07-25T04:56:28;7.60;;;6.90;;
23179;SDS011;11758;45.756;11.432;2022-07-25T04:58:54;14.85;;;6.95;;
23179;SDS011;11758;45.756;11.432;2022-07-25T05:01:21;8.30;;;6.50;;
23179;SDS011;11758;45.756;11.432;2022-07-25T05:03:47;7.43;;;6.82;;
23179;SDS011;11758;45.756;11.432;2022-07-25T05:06:13;6.57;;;6.07;;
23179;SDS011;11758;45.756;11.432;2022-07-25T05:08:39;8.07;;;7.28;;
23179;SDS011;11758;45.756;11.432;2022-07-25T05:11:07;24.02;;;7.55;;
23179;SDS011;11758;45.756;11.432;2022-07-25T05:13:34;9.18;;;7.25;;
23179;SDS011;11758;45.756;11.432;2022-07-25T05:16:00;7.80;;;6.80;;
23179;SDS011;11758;45.756;11.432;2022-07-25T05:18:27;9.57;;;6.97;;
23179;SDS011;11758;45.756;11.432;2022-07-25T05:20:53;8.55;;;6.78;;
23179;SDS011;11758;45.756;11.432;2022-07-25T05:23:19;8.05;;;7.00;;
23179;SDS011;11758;45.756;11.432;2022-07-25T05:25:46;9.68;;;7.00;;
23179;SDS011;11758;45.756;11.432;2022-07-25T05:28:13;9.73;;;8.82;;
23179;SDS011;11758;45.756;11.432;2022-07-25T05:30:39;7.97;;;7.05;;
23179;SDS011;11758;45.756;11.432;2022-07-25T05:33:06;16.48;;;7.78;;
23179;SDS011;11758;45.756;11.432;2022-07-25T05:35:32;11.38;;;7.10;;
23179;SDS011;11758;45.756;11.432;2022-07-25T05:37:58;11.27;;;7.25;;
23179;SDS011;11758;45.756;11.432;2022-07-25T05:40:24;13.35;;;7.65;;
23179;SDS011;11758;45.756;11.432;2022-07-25T05:42:50;13.90;;;7.50;;
23179;SDS011;11758;45.756;11.432;2022-07-25T05:45:16;12.35;;;8.02;;
23179;SDS011;11758;45.756;11.432;2022-07-25T05:47:43;19.70;;;7.57;;
23179;SDS011;11758;45.756;11.432;2022-07-25T05:50:09;9.73;;;7.10;;
23179;SDS011;11758;45.756;11.432;2022-07-25T05:52:35;8.20;;;7.45;;
23179;SDS011;11758;45.756;11.432;2022-07-25T05:55:01;9.15;;;7.45;;
23179;SDS011;11758;45.756;11.432;2022-07-25T05:57:27;10.30;;;7.75;;
23179;SDS011;11758;45.756;11.432;2022-07-25T05:59:53;7.68;;;7.18;;
23179;SDS011;11758;45.756;11.432;2022-07-25T06:02:20;11.45;;;7.40;;
23179;SDS011;11758;45.756;11.432;2022-07-25T06:04:47;10.20;;;7.38;;
23179;SDS011;11758;45.756;11.432;2022-07-25T06:07:13;9.70;;;7.40;;
23179;SDS011;11758;45.756;11.432;2022-07-25T06:09:39;11.55;;;7.25;;
23179;SDS011;11758;45.756;11.432;2022-07-25T06:12:05;9.60;;;7.38;;
23179;SDS011;11758;45.756;11.432;2022-07-25T06:14:32;12.18;;;8.00;;
23179;SDS011;11758;45.756;11.432;2022-07-25T06:16:58;15.98;;;8.00;;
23179;SDS011;11758;45.756;11.432;2022-07-25T06:19:24;8.32;;;7.47;;
23179;SDS011;11758;45.756;11.432;2022-07-25T06:21:50;8.48;;;6.97;;
23179;SDS011;11758;45.756;11.432;2022-07-25T06:24:16;12.95;;;7.18;;
23179;SDS011;11758;45.756;11.432;2022-07-25T06:26:42;13.77;;;7.35;;
23179;SDS011;11758;45.756;11.432;2022-07-25T06:29:08;8.40;;;7.57;;
23179;SDS011;11758;45.756;11.432;2022-07-25T06:31:35;11.68;;;7.38;;
23179;SDS011;11758;45.756;11.432;2022-07-25T06:34:01;11.43;;;7.15;;
23179;SDS011;11758;45.756;11.432;2022-07-25T06:36:27;8.60;;;7.30;;
23179;SDS011;11758;45.756;11.432;2022-07-25T06:38:53;8.25;;;6.90;;
23179;SDS011;11758;45.756;11.432;2022-07-25T06:41:19;13.57;;;7.68;;
23179;SDS011;11758;45.756;11.432;2022-07-25T06:43:45;8.30;;;7.50;;
23179;SDS011;11758;45.756;11.432;2022-07-25T06:46:11;9.50;;;8.07;;
23179;SDS011;11758;45.756;11.432;2022-07-25T06:48:37;11.15;;;7.47;;
23179;SDS011;11758;45.756;11.432;2022-07-25T06:51:04;12.82;;;7.95;;
23179;SDS011;11758;45.756;11.432;2022-07-25T06:53:30;10.15;;;7.30;;
23179;SDS011;11758;45.756;11.432;2022-07-25T06:55:56;13.23;;;8.40;;
23179;SDS011;11758;45.756;11.432;2022-07-25T06:58:22;9.48;;;7.65;;
23179;SDS011;11758;45.756;11.432;2022-07-25T07:00:48;12.48;;;7.35;;
23179;SDS011;11758;45.756;11.432;2022-07-25T07:03:14;8.10;;;7.30;;
23179;SDS011;11758;45.756;11.432;2022-07-25T07:05:40;10.20;;;8.27;;
23179;SDS011;11758;45.756;11.432;2022-07-25T07:08:06;12.25;;;7.68;;
23179;SDS011;11758;45.756;11.432;2022-07-25T07:10:32;8.70;;;7.38;;
23179;SDS011;11758;45.756;11.432;2022-07-25T07:13:09;10.80;;;7.78;;
23179;SDS011;11758;45.756;11.432;2022-07-25T07:15:35;12.05;;;7.75;;
23179;SDS011;11758;45.756;11.432;2022-07-25T07:18:01;8.18;;;7.38;;
23179;SDS011;11758;45.756;11.432;2022-07-25T07:20:27;15.45;;;7.75;;
23179;SDS011;11758;45.756;11.432;2022-07-25T07:22:54;8.05;;;7.25;;
23179;SDS011;11758;45.756;11.432;2022-07-25T07:25:20;9.32;;;6.93;;
23179;SDS011;11758;45.756;11.432;2022-07-25T07:27:48;10.07;;;7.28;;
23179;SDS011;11758;45.756;11.432;2022-07-25T07:30:15;12.85;;;7.88;;
23179;SDS011;11758;45.756;11.432;2022-07-25T07:32:42;15.55;;;6.78;;
23179;SDS011;11758;45.756;11.432;2022-07-25T07:35:08;10.25;;;6.85;;
23179;SDS011;11758;45.756;11.432;2022-07-25T07:37:35;10.07;;;7.53;;
23179;SDS011;11758;45.756;11.432;2022-07-25T07:40:02;9.27;;;7.43;;
23179;SDS011;11758;45.756;11.432;2022-07-25T07:42:35;9.27;;;7.30;;
23179;SDS011;11758;45.756;11.432;2022-07-25T07:45:02;10.95;;;6.90;;
23179;SDS011;11758;45.756;11.432;2022-07-25T07:47:28;13.95;;;6.97;;
23179;SDS011;11758;45.756;11.432;2022-07-25T07:49:54;7.63;;;6.97;;
23179;SDS011;11758;45.756;11.432;2022-07-25T07:52:20;13.95;;;6.93;;
23179;SDS011;11758;45.756;11.432;2022-07-25T07:54:46;10.25;;;7.70;;
23179;SDS011;11758;45.756;11.432;2022-07-25T07:57:41;12.38;;;7.68;;
23179;SDS011;11758;45.756;11.432;2022-07-25T08:00:08;13.90;;;7.35;;
23179;SDS011;11758;45.756;11.432;2022-07-25T08:02:48;17.70;;;7.55;;
23179;SDS011;11758;45.756;11.432;2022-07-25T08:05:31;8.07;;;7.03;;
23179;SDS011;11758;45.756;11.432;2022-07-25T08:07:57;15.20;;;7.30;;
23179;SDS011;11758;45.756;11.432;2022-07-25T08:10:25;10.18;;;7.53;;
23179;SDS011;11758;45.756;11.432;2022-07-25T08:12:51;12.88;;;7.25;;
23179;SDS011;11758;45.756;11.432;2022-07-25T08:15:18;10.20;;;7.38;;
23179;SDS011;11758;45.756;11.432;2022-07-25T08:17:45;10.60;;;7.00;;
23179;SDS011;11758;45.756;11.432;2022-07-25T08:20:12;7.80;;;6.90;;
23179;SDS011;11758;45.756;11.432;2022-07-25T08:22:39;9.20;;;6.93;;
23179;SDS011;11758;45.756;11.432;2022-07-25T08:25:05;9.30;;;7.30;;
23179;SDS011;11758;45.756;11.432;2022-07-25T08:27:32;9.93;;;7.68;;
23179;SDS011;11758;45.756;11.432;2022-07-25T08:29:58;15.73;;;7.25;;
23179;SDS011;11758;45.756;11.432;2022-07-25T08:32:26;8.93;;;7.05;;
23179;SDS011;11758;45.756;11.432;2022-07-25T08:34:53;7.53;;;6.72;;
23179;SDS011;11758;45.756;11.432;2022-07-25T08:37:19;9.07;;;7.25;;
23179;SDS011;11758;45.756;11.432;2022-07-25T08:39:45;9.45;;;7.68;;
23179;SDS011;11758;45.756;11.432;2022-07-25T08:42:12;8.68;;;7.30;;
23179;SDS011;11758;45.756;11.432;2022-07-25T08:44:39;13.68;;;11.25;;
23179;SDS011;11758;45.756;11.432;2022-07-25T08:47:07;11.70;;;7.43;;
23179;SDS011;11758;45.756;11.432;2022-07-25T08:49:34;12.05;;;7.60;;
23179;SDS011;11758;45.756;11.432;2022-07-25T08:52:01;14.18;;;6.95;;
23179;SDS011;11758;45.756;11.432;2022-07-25T08:54:27;15.05;;;7.57;;
23179;SDS011;11758;45.756;11.432;2022-07-25T08:56:53;10.40;;;7.43;;
23179;SDS011;11758;45.756;11.432;2022-07-25T08:59:19;10.85;;;7.40;;
23179;SDS011;11758;45.756;11.432;2022-07-25T09:01:46;8.40;;;7.50;;
23179;SDS011;11758;45.756;11.432;2022-07-25T09:04:12;10.65;;;6.57;;
23179;SDS011;11758;45.756;11.432;2022-07-25T09:06:47;10.80;;;6.85;;
23179;SDS011;11758;45.756;11.432;2022-07-25T09:09:13;13.07;;;7.47;;
23179;SDS011;11758;45.756;11.432;2022-07-25T09:11:39;10.20;;;7.25;;
23179;SDS011;11758;45.756;11.432;2022-07-25T09:14:07;12.73;;;7.68;;
23179;SDS011;11758;45.756;11.432;2022-07-25T09:16:36;13.57;;;6.65;;
23179;SDS011;11758;45.756;11.432;2022-07-25T09:21:32;12.80;;;7.15;;
23179;SDS011;11758;45.756;11.432;2022-07-25T09:24:06;12.75;;;6.95;;
23179;SDS011;11758;45.756;11.432;2022-07-25T09:26:41;8.55;;;7.20;;
23179;SDS011;11758;45.756;11.432;2022-07-25T09:29:07;8.05;;;6.53;;
23179;SDS011;11758;45.756;11.432;2022-07-25T09:31:40;9.55;;;6.80;;
23179;SDS011;11758;45.756;11.432;2022-07-25T09:34:07;7.90;;;6.30;;
23179;SDS011;11758;45.756;11.432;2022-07-25T09:36:34;8.98;;;6.45;;
23179;SDS011;11758;45.756;11.432;2022-07-25T09:39:03;7.13;;;6.25;;
23179;SDS011;11758;45.756;11.432;2022-07-25T09:41:34;7.60;;;6.50;;
23179;SDS011;11758;45.756;11.432;2022-07-25T09:44:00;14.20;;;6.75;;
23179;SDS011;11758;45.756;11.432;2022-07-25T09:46:30;12.10;;;6.32;;
23179;SDS011;11758;45.756;11.432;2022-07-25T09:48:57;17.23;;;6.70;;
23179;SDS011;11758;45.756;11.432;2022-07-25T09:51:24;10.43;;;7.00;;
23179;SDS011;11758;45.756;11.432;2022-07-25T09:53:50;8.68;;;6.82;;
23179;SDS011;11758;45.756;11.432;2022-07-25T09:56:16;9.20;;;6.55;;
23179;SDS011;11758;45.756;11.432;2022-07-25T09:58:43;10.40;;;6.88;;
23179;SDS011;11758;45.756;11.432;2022-07-25T10:01:09;7.78;;;6.78;;
23179;SDS011;11758;45.756;11.432;2022-07-25T10:03:50;9.82;;;6.68;;
23179;SDS011;11758;45.756;11.432;2022-07-25T10:06:20;8.15;;;7.28;;
23179;SDS011;11758;45.756;11.432;2022-07-25T10:08:49;7.50;;;6.18;;
23179;SDS011;11758;45.756;11.432;2022-07-25T10:11:22;10.65;;;7.15;;
23179;SDS011;11758;45.756;11.432;2022-07-25T10:13:49;12.57;;;6.82;;
23179;SDS011;11758;45.756;11.432;2022-07-25T10:16:20;7.97;;;6.43;;
23179;SDS011;11758;45.756;11.432;2022-07-25T10:18:50;8.57;;;6.93;;
23179;SDS011;11758;45.756;11.432;2022-07-25T10:21:17;10.13;;;7.10;;
23179;SDS011;11758;45.756;11.432;2022-07-25T10:23:44;10.00;;;7.40;;
23179;SDS011;11758;45.756;11.432;2022-07-25T10:26:14;14.63;;;7.35;;
23179;SDS011;11758;45.756;11.432;2022-07-25T10:28:44;9.70;;;6.53;;
23179;SDS011;11758;45.756;11.432;2022-07-25T10:33:57;11.27;;;6.80;;
23179;SDS011;11758;45.756;11.432;2022-07-25T10:36:24;9.20;;;7.22;;
23179;SDS011;11758;45.756;11.432;2022-07-25T10:38:55;6.78;;;6.03;;
23179;SDS011;11758;45.756;11.432;2022-07-25T10:41:22;12.23;;;7.15;;
23179;SDS011;11758;45.756;11.432;2022-07-25T10:43:50;7.93;;;7.22;;
23179;SDS011;11758;45.756;11.432;2022-07-25T10:46:19;10.25;;;7.20;;
23179;SDS011;11758;45.756;11.432;2022-07-25T10:49:01;10.68;;;6.95;;
23179;SDS011;11758;45.756;11.432;2022-07-25T10:51:28;7.60;;;7.00;;
23179;SDS011;11758;45.756;11.432;2022-07-25T10:53:54;11.23;;;7.22;;
23179;SDS011;11758;45.756;11.432;2022-07-25T10:56:22;7.18;;;6.70;;
23179;SDS011;11758;45.756;11.432;2022-07-25T10:58:49;6.90;;;6.30;;
23179;SDS011;11758;45.756;11.432;2022-07-25T11:01:19;10.70;;;7.57;;
23179;SDS011;11758;45.756;11.432;2022-07-25T11:03:46;10.63;;;7.15;;
23179;SDS011;11758;45.756;11.432;2022-07-25T11:06:12;7.63;;;6.70;;
23179;SDS011;11758;45.756;11.432;2022-07-25T11:08:39;7.45;;;6.78;;
23179;SDS011;11758;45.756;11.432;2022-07-25T11:11:05;8.02;;;6.78;;
23179;SDS011;11758;45.756;11.432;2022-07-25T11:13:36;9.50;;;7.05;;
23179;SDS011;11758;45.756;11.432;2022-07-25T11:16:02;10.13;;;7.78;;
23179;SDS011;11758;45.756;11.432;2022-07-25T11:21:02;13.00;;;7.10;;
23179;SDS011;11758;45.756;11.432;2022-07-25T11:23:28;7.80;;;6.90;;
23179;SDS011;11758;45.756;11.432;2022-07-25T11:26:08;7.90;;;7.03;;
23179;SDS011;11758;45.756;11.432;2022-07-25T11:28:38;8.23;;;7.13;;
23179;SDS011;11758;45.756;11.432;2022-07-25T11:31:04;11.35;;;6.80;;
23179;SDS011;11758;45.756;11.432;2022-07-25T11:33:31;8.07;;;7.13;;
23179;SDS011;11758;45.756;11.432;2022-07-25T11:35:57;7.30;;;6.65;;
23179;SDS011;11758;45.756;11.432;2022-07-25T11:38:24;7.63;;;6.93;;
23179;SDS011;11758;45.756;11.432;2022-07-25T11:40:50;10.20;;;7.25;;
23179;SDS011;11758;45.756;11.432;2022-07-25T11:43:20;11.35;;;7.25;;
23179;SDS011;11758;45.756;11.432;2022-07-25T11:46:08;10.98;;;7.05;;
23179;SDS011;11758;45.756;11.432;2022-07-25T11:48:37;13.35;;;7.20;;
23179;SDS011;11758;45.756;11.432;2022-07-25T11:51:14;8.10;;;6.80;;
23179;SDS011;11758;45.756;11.432;2022-07-25T11:53:44;8.70;;;7.07;;
23179;SDS011;11758;45.756;11.432;2022-07-25T11:56:14;9.68;;;6.95;;
23179;SDS011;11758;45.756;11.432;2022-07-25T11:58:41;11.13;;;7.50;;
23179;SDS011;11758;45.756;11.432;2022-07-25T12:01:11;8.25;;;6.90;;
23179;SDS011;11758;45.756;11.432;2022-07-25T12:03:38;7.88;;;7.15;;
23179;SDS011;11758;45.756;11.432;2022-07-25T12:06:08;11.43;;;7.25;;
23179;SDS011;11758;45.756;11.432;2022-07-25T12:08:38;9.38;;;6.97;;
23179;SDS011;11758;45.756;11.432;2022-07-25T12:11:18;10.00;;;7.30;;
23179;SDS011;11758;45.756;11.432;2022-07-25T12:13:44;15.23;;;7.13;;
23179;SDS011;11758;45.756;11.432;2022-07-25T12:16:10;10.63;;;7.43;;
23179;SDS011;11758;45.756;11.432;2022-07-25T12:18:37;7.78;;;7.13;;
23179;SDS011;11758;45.756;11.432;2022-07-25T12:21:03;13.95;;;7.30;;
23179;SDS011;11758;45.756;11.432;2022-07-25T12:23:30;13.35;;;7.13;;
23179;SDS011;11758;45.756;11.432;2022-07-25T12:25:56;12.07;;;7.05;;
23179;SDS011;11758;45.756;11.432;2022-07-25T12:28:22;13.82;;;7.40;;
23179;SDS011;11758;45.756;11.432;2022-07-25T12:30:48;8.73;;;7.07;;
23179;SDS011;11758;45.756;11.432;2022-07-25T12:33:15;9.20;;;6.97;;
23179;SDS011;11758;45.756;11.432;2022-07-25T12:35:41;11.20;;;7.63;;
23179;SDS011;11758;45.756;11.432;2022-07-25T12:38:07;7.80;;;7.00;;
23179;SDS011;11758;45.756;11.432;2022-07-25T12:40:35;9.43;;;7.78;;
23179;SDS011;11758;45.756;11.432;2022-07-25T12:43:02;12.32;;;7.80;;
23179;SDS011;11758;45.756;11.432;2022-07-25T12:45:28;9.27;;;7.60;;
23179;SDS011;11758;45.756;11.432;2022-07-25T12:47:54;11.80;;;7.57;;
23179;SDS011;11758;45.756;11.432;2022-07-25T12:50:20;13.75;;;7.30;;
23179;SDS011;11758;45.756;11.432;2022-07-25T12:52:49;8.20;;;6.47;;
23179;SDS011;11758;45.756;11.432;2022-07-25T12:55:16;11.93;;;7.72;;
23179;SDS011;11758;45.756;11.432;2022-07-25T12:57:43;9.35;;;7.63;;
23179;SDS011;11758;45.756;11.432;2022-07-25T13:00:10;13.65;;;7.80;;
23179;SDS011;11758;45.756;11.432;2022-07-25T13:02:37;12.45;;;7.72;;
23179;SDS011;11758;45.756;11.432;2022-07-25T13:05:03;9.13;;;7.32;;
23179;SDS011;11758;45.756;11.432;2022-07-25T13:07:30;17.13;;;7.47;;
23179;SDS011;11758;45.756;11.432;2022-07-25T13:09:57;8.57;;;7.30;;
23179;SDS011;11758;45.756;11.432;2022-07-25T13:12:23;15.05;;;7.75;;
23179;SDS011;11758;45.756;11.432;2022-07-25T13:14:49;8.20;;;7.30;;
23179;SDS011;11758;45.756;11.432;2022-07-25T13:17:25;9.63;;;7.60;;
23179;SDS011;11758;45.756;11.432;2022-07-25T13:19:52;10.55;;;7.68;;
23179;SDS011;11758;45.756;11.432;2022-07-25T13:22:18;7.63;;;6.90;;
23179;SDS011;11758;45.756;11.432;2022-07-25T13:24:44;7.93;;;7.18;;
23179;SDS011;11758;45.756;11.432;2022-07-25T13:27:10;12.18;;;7.50;;
23179;SDS011;11758;45.756;11.432;2022-07-25T13:29:36;9.88;;;7.40;;
23179;SDS011;11758;45.756;11.432;2022-07-25T13:32:02;9.52;;;7.28;;
23179;SDS011;11758;45.756;11.432;2022-07-25T13:34:29;11.63;;;7.60;;
23179;SDS011;11758;45.756;11.432;2022-07-25T13:36:55;12.82;;;7.40;;
23179;SDS011;11758;45.756;11.432;2022-07-25T13:39:21;8.70;;;7.75;;
23179;SDS011;11758;45.756;11.432;2022-07-25T13:41:48;8.88;;;7.20;;
23179;SDS011;11758;45.756;11.432;2022-07-25T13:44:15;8.95;;;7.68;;
23179;SDS011;11758;45.756;11.432;2022-07-25T13:46:41;9.75;;;7.07;;
23179;SDS011;11758;45.756;11.432;2022-07-25T13:49:09;8.57;;;7.30;;
23179;SDS011;11758;45.756;11.432;2022-07-25T13:51:35;10.85;;;7.80;;
23179;SDS011;11758;45.756;11.432;2022-07-25T13:54:02;10.68;;;7.72;;
23179;SDS011;11758;45.756;11.432;2022-07-25T13:56:29;8.70;;;7.80;;
23179;SDS011;11758;45.756;11.432;2022-07-25T13:58:55;8.27;;;7.20;;
23179;SDS011;11758;45.756;11.432;2022-07-25T14:01:21;11.18;;;7.70;;
23179;SDS011;11758;45.756;11.432;2022-07-25T14:03:49;10.55;;;7.55;;
23179;SDS011;11758;45.756;11.432;2022-07-25T14:06:15;9.77;;;7.60;;
23179;SDS011;11758;45.756;11.432;2022-07-25T14:08:41;10.63;;;7.53;;
23179;SDS011;11758;45.756;11.432;2022-07-25T14:11:09;11.93;;;7.75;;
23179;SDS011;11758;45.756;11.432;2022-07-25T14:13:35;8.25;;;7.45;;
23179;SDS011;11758;45.756;11.432;2022-07-25T14:16:02;8.93;;;7.60;;
23179;SDS011;11758;45.756;11.432;2022-07-25T14:18:28;14.50;;;8.60;;
23179;SDS011;11758;45.756;11.432;2022-07-25T14:20:56;11.68;;;7.20;;
23179;SDS011;11758;45.756;11.432;2022-07-25T14:23:22;10.65;;;7.15;;
23179;SDS011;11758;45.756;11.432;2022-07-25T14:25:48;16.67;;;7.97;;
23179;SDS011;11758;45.756;11.432;2022-07-25T14:28:14;19.92;;;7.78;;
23179;SDS011;11758;45.756;11.432;2022-07-25T14:30:40;11.77;;;7.47;;
23179;SDS011;11758;45.756;11.432;2022-07-25T14:33:06;8.30;;;7.50;;
23179;SDS011;11758;45.756;11.432;2022-07-25T14:35:33;12.93;;;7.35;;